createdAt,value
2023-05-21T00:01:16.559Z,100219.31
2023-05-21T00:04:06.423Z,100210.91
2023-05-21T00:06:54.204Z,100216.75
2023-05-21T00:09:41.937Z,100197.53
2023-05-21T00:12:29.743Z,100195.19
2023-05-21T00:15:17.617Z,100217.88
2023-05-21T00:18:05.841Z,100190.66
2023-05-21T00:20:53.693Z,100180.22
2023-05-21T00:23:43.018Z,100204.03
2023-05-21T00:26:30.910Z,100182.44
2023-05-21T00:29:18.806Z,100168.16
2023-05-21T00:32:07.001Z,100167.22
2023-05-21T00:34:54.858Z,100173.72
2023-05-21T00:37:43.021Z,100188.03
2023-05-21T00:40:31.404Z,100186.75
2023-05-21T00:43:19.084Z,100183.00
2023-05-21T00:46:19.885Z,100186.88
2023-05-21T00:49:08.388Z,100183.28
2023-05-21T00:51:56.774Z,100168.59
2023-05-21T00:54:44.433Z,100187.47
2023-05-21T00:57:33.592Z,100182.16
2023-05-21T01:00:21.655Z,100184.50
2023-05-21T01:03:11.250Z,100180.28
2023-05-21T01:06:01.741Z,100159.09
2023-05-21T01:08:51.142Z,100158.56
2023-05-21T01:11:49.361Z,100173.75
2023-05-21T01:14:38.013Z,100169.72
2023-05-21T01:17:27.699Z,100163.25
2023-05-21T01:20:20.420Z,100170.38
2023-05-21T01:23:08.863Z,100175.72
2023-05-21T01:25:56.744Z,100167.75
2023-05-21T01:28:44.473Z,100144.91
2023-05-21T01:31:42.787Z,100176.78
2023-05-21T01:34:41.421Z,100177.38
2023-05-21T01:37:38.433Z,100190.84
2023-05-21T01:40:32.023Z,100190.19
2023-05-21T01:43:21.135Z,100177.16
2023-05-21T01:46:11.651Z,100174.56
2023-05-21T01:49:00.132Z,100175.41
2023-05-21T01:51:48.526Z,100177.66
2023-05-21T01:54:36.264Z,100149.94
2023-05-21T01:57:24.156Z,100177.81
2023-05-21T02:00:13.404Z,100173.88
2023-05-21T02:03:03.883Z,100178.03
2023-05-21T02:05:52.405Z,100157.28
2023-05-21T02:08:40.609Z,100170.09
2023-05-21T02:11:29.400Z,100167.63
2023-05-21T02:14:30.054Z,100165.28
2023-05-21T02:17:30.780Z,100161.34
2023-05-21T02:20:18.548Z,100170.03
2023-05-21T02:23:06.340Z,100159.59
2023-05-21T02:25:54.763Z,100167.41
2023-05-21T02:28:42.509Z,100167.97
2023-05-21T02:31:30.269Z,100142.03
2023-05-21T02:34:20.862Z,100163.47
2023-05-21T02:37:09.978Z,100154.78
2023-05-21T02:39:57.797Z,100155.31
2023-05-21T02:42:45.594Z,100158.97
2023-05-21T02:45:38.397Z,100162.13
2023-05-21T02:48:29.577Z,100140.44
2023-05-21T02:51:17.282Z,100156.66
2023-05-21T02:54:04.981Z,100130.25
2023-05-21T02:56:52.860Z,100159.84
2023-05-21T02:59:40.926Z,100142.53
2023-05-21T03:02:30.472Z,100135.69
2023-05-21T03:05:18.311Z,100149.03
2023-05-21T03:08:06.278Z,100152.16
2023-05-21T03:10:54.194Z,100144.84
2023-05-21T03:13:43.452Z,100166.38
2023-05-21T03:16:35.159Z,100161.75
2023-05-21T03:19:25.226Z,100171.50
2023-05-21T03:22:13.299Z,100173.22
2023-05-21T03:25:05.122Z,100175.25
2023-05-21T03:27:53.131Z,100175.19
2023-05-21T03:31:01.269Z,100180.41
2023-05-21T03:34:08.834Z,100157.31
2023-05-21T03:36:56.750Z,100166.06
2023-05-21T03:39:44.735Z,100173.38
2023-05-21T03:42:44.899Z,100182.03
2023-05-21T03:45:33.576Z,100173.38
2023-05-21T03:48:40.202Z,100167.91
2023-05-21T03:51:30.629Z,100164.81
2023-05-21T03:54:19.346Z,100161.13
2023-05-21T03:57:07.717Z,100148.44
2023-05-21T03:59:56.258Z,100170.84
2023-05-21T04:02:45.734Z,100169.69
2023-05-21T04:05:37.311Z,100169.53
2023-05-21T04:08:27.578Z,100165.28
2023-05-21T04:11:15.422Z,100165.06
2023-05-21T04:14:03.170Z,100158.88
2023-05-21T04:16:53.594Z,100158.03
2023-05-21T04:19:42.350Z,100135.25
2023-05-21T04:22:40.417Z,100170.09
2023-05-21T04:25:29.752Z,100142.72
2023-05-21T04:28:35.508Z,100146.78
2023-05-21T04:31:25.827Z,100158.81
2023-05-21T04:34:20.305Z,100163.66
2023-05-21T04:37:11.741Z,100160.22
2023-05-21T04:39:59.617Z,100165.00
2023-05-21T04:42:48.667Z,100162.16
2023-05-21T04:45:43.865Z,100142.88
2023-05-21T04:48:32.258Z,100164.06
2023-05-21T04:51:20.185Z,100132.19
2023-05-21T04:54:09.022Z,100170.22
2023-05-21T04:56:58.420Z,100147.19
2023-05-21T04:59:47.355Z,100174.47
2023-05-21T05:02:36.354Z,100121.28
2023-05-21T05:05:24.053Z,100155.75
2023-05-21T05:08:13.861Z,100147.84
2023-05-21T05:11:06.412Z,100157.03
2023-05-21T05:13:54.420Z,100152.41
2023-05-21T05:16:44.642Z,100157.69
2023-05-21T05:19:33.012Z,100150.09
2023-05-21T05:22:21.151Z,100155.78
2023-05-21T05:25:12.381Z,100163.84
2023-05-21T05:28:02.952Z,100156.72
2023-05-21T05:30:51.208Z,100161.50
2023-05-21T05:33:44.618Z,100163.91
2023-05-21T05:36:33.969Z,100141.97
2023-05-21T05:39:24.900Z,100154.34
2023-05-21T05:42:15.238Z,100144.81
2023-05-21T05:45:03.353Z,100147.53
2023-05-21T05:48:00.716Z,100127.22
2023-05-21T05:50:55.067Z,100137.22
2023-05-21T05:53:49.101Z,100144.78
2023-05-21T05:56:39.704Z,100153.13
2023-05-21T05:59:27.611Z,100156.72
2023-05-21T06:02:19.500Z,100153.41
2023-05-21T06:05:07.881Z,100141.38
2023-05-21T06:07:56.224Z,100152.75
2023-05-21T06:10:44.121Z,100152.34
2023-05-21T06:13:38.102Z,100148.78
2023-05-21T06:16:26.750Z,100142.16
2023-05-21T06:19:14.740Z,100123.69
2023-05-21T06:22:03.205Z,100128.78
2023-05-21T06:24:51.452Z,100124.72
2023-05-21T06:27:39.388Z,100108.06
2023-05-21T06:30:34.156Z,100101.72
2023-05-21T06:33:22.176Z,100114.31
2023-05-21T06:36:11.232Z,100106.09
2023-05-21T06:38:59.347Z,100074.13
2023-05-21T06:41:47.152Z,100091.47
2023-05-21T06:44:57.934Z,100069.69
2023-05-21T06:48:12.699Z,100075.53
2023-05-21T06:51:05.444Z,100070.97
2023-05-21T06:53:53.309Z,100090.44
2023-05-21T06:56:41.462Z,100074.97
2023-05-21T06:59:29.621Z,100066.41
2023-05-21T07:02:17.786Z,100084.69
2023-05-21T07:05:09.293Z,100047.41
2023-05-21T07:07:57.960Z,100083.34
2023-05-21T07:10:46.470Z,100020.59
2023-05-21T07:13:36.380Z,100068.69
2023-05-21T07:16:24.476Z,100076.03
2023-05-21T07:19:12.572Z,100010.78
2023-05-21T07:22:01.257Z,100029.34
2023-05-21T07:24:49.427Z,100073.38
2023-05-21T07:27:38.486Z,100044.53
2023-05-21T07:30:26.377Z,100051.50
2023-05-21T07:33:14.768Z,100056.53
2023-05-21T07:36:03.046Z,100065.16
2023-05-21T07:38:51.651Z,100034.50
2023-05-21T07:41:40.803Z,100073.75
2023-05-21T07:44:31.302Z,100053.94
2023-05-21T07:47:19.213Z,100076.63
2023-05-21T07:50:07.484Z,100055.16
2023-05-21T07:52:55.409Z,100068.91
2023-05-21T07:55:48.060Z,100083.41
2023-05-21T07:58:40.761Z,100075.19
2023-05-21T08:01:31.564Z,100077.00
2023-05-21T08:04:19.630Z,100077.19
2023-05-21T08:07:07.536Z,100068.69
2023-05-21T08:09:55.253Z,100045.00
2023-05-21T08:12:43.308Z,100039.47
2023-05-21T08:15:34.429Z,100040.13
2023-05-21T08:18:24.080Z,100065.06
2023-05-21T08:21:14.463Z,100053.13
2023-05-21T08:24:06.928Z,100072.97
2023-05-21T08:26:56.035Z,100032.88
2023-05-21T08:29:44.144Z,100060.19
2023-05-21T08:32:32.792Z,100058.97
2023-05-21T08:35:23.909Z,100045.16
2023-05-21T08:38:19.556Z,100023.78
2023-05-21T08:41:24.376Z,100032.81
2023-05-21T08:44:14.314Z,100039.94
2023-05-21T08:47:05.705Z,100024.09
2023-05-21T08:49:59.546Z,100045.53
2023-05-21T08:52:50.672Z,100003.06
2023-05-21T08:55:40.215Z,100051.03
2023-05-21T08:58:28.377Z,99994.88
2023-05-21T09:01:19.892Z,100050.16
2023-05-21T09:04:21.395Z,100037.00
2023-05-21T09:07:17.243Z,100041.66
2023-05-21T09:10:50.562Z,100046.19
2023-05-21T09:13:40.817Z,100035.97
2023-05-21T09:16:35.325Z,100015.22
2023-05-21T09:19:27.017Z,100039.97
2023-05-21T09:22:16.810Z,99991.78
2023-05-21T09:25:08.530Z,100046.84
2023-05-21T09:27:57.060Z,100046.34
2023-05-21T09:30:50.008Z,100047.50
2023-05-21T09:33:48.861Z,100047.19
2023-05-21T09:36:38.863Z,100028.66
2023-05-21T09:39:33.713Z,100031.16
2023-05-21T09:42:24.708Z,100041.56
2023-05-21T09:45:12.852Z,100035.50
2023-05-21T09:48:00.662Z,100032.22
2023-05-21T09:50:48.429Z,100030.41
2023-05-21T09:53:36.685Z,100008.09
2023-05-21T09:56:25.958Z,100031.03
2023-05-21T09:59:13.961Z,100011.94
2023-05-21T10:02:02.520Z,100025.84
2023-05-21T10:04:52.004Z,100017.19
2023-05-21T10:07:43.060Z,99982.16
2023-05-21T10:10:54.115Z,100046.00
2023-05-21T10:13:49.284Z,100019.06
2023-05-21T10:16:43.842Z,99997.50
2023-05-21T10:19:34.448Z,100029.78
2023-05-21T10:22:28.381Z,100007.66
2023-05-21T10:25:21.090Z,100027.47
2023-05-21T10:29:19.351Z,99991.34
2023-05-21T10:32:08.461Z,99991.84
2023-05-21T10:35:05.553Z,100010.94
2023-05-21T10:37:55.042Z,99979.88
2023-05-21T10:44:49.858Z,99995.44
2023-05-21T10:48:05.369Z,100030.56
2023-05-21T10:51:09.965Z,100027.34
2023-05-21T10:54:23.369Z,99941.13
2023-05-21T10:57:47.989Z,100018.19
2023-05-21T11:00:36.168Z,100013.47
2023-05-21T11:03:37.397Z,100017.31
2023-05-21T11:06:26.664Z,100010.41
2023-05-21T11:09:20.505Z,100003.63
2023-05-21T11:12:20.823Z,100008.00
2023-05-21T11:16:06.174Z,100002.72
2023-05-21T11:18:55.261Z,99999.03
2023-05-21T11:21:45.279Z,99981.06
2023-05-21T11:24:41.999Z,99975.41
2023-05-21T11:27:50.227Z,99990.38
2023-05-21T11:30:45.821Z,99932.84
2023-05-21T11:33:24.035Z,99964.41
2023-05-21T11:36:14.806Z,99967.81
2023-05-21T11:39:19.493Z,99971.44
2023-05-21T11:42:07.255Z,99958.31
2023-05-21T11:44:58.242Z,99960.31
2023-05-21T11:47:47.881Z,99969.25
2023-05-21T11:50:36.287Z,99951.63
2023-05-21T11:53:27.180Z,99962.16
2023-05-21T11:56:16.994Z,99958.94
2023-05-21T11:59:06.088Z,99969.16
2023-05-21T12:01:57.876Z,99933.25
2023-05-21T12:04:51.051Z,99957.69
2023-05-21T12:07:39.001Z,99961.94
2023-05-21T12:10:26.847Z,99939.59
2023-05-21T12:13:15.464Z,99931.97
2023-05-21T12:16:15.868Z,99909.03
2023-05-21T12:19:22.000Z,99918.38
2023-05-21T12:22:10.501Z,99944.94
2023-05-21T12:25:01.432Z,99931.09
2023-05-21T12:28:01.977Z,99873.16
2023-05-21T12:30:50.045Z,99933.13
2023-05-21T12:33:40.908Z,99908.06
2023-05-21T12:36:35.053Z,99896.72
2023-05-21T12:39:30.349Z,99907.88
2023-05-21T12:42:27.481Z,99891.53
2023-05-21T12:45:15.520Z,99900.81
2023-05-21T12:48:03.797Z,99868.47
2023-05-21T12:50:52.602Z,99901.19
2023-05-21T12:53:43.554Z,99898.28
2023-05-21T12:56:45.419Z,99884.66
2023-05-21T12:59:49.739Z,99886.03
2023-05-21T13:02:41.432Z,99891.13
2023-05-21T13:05:29.595Z,99863.78
2023-05-21T13:08:17.656Z,99877.84
2023-05-21T13:11:05.774Z,99885.69
2023-05-21T13:13:53.568Z,99874.34
2023-05-21T13:16:41.472Z,99864.31
2023-05-21T13:19:29.513Z,99848.38
2023-05-21T13:22:17.574Z,99846.25
2023-05-21T13:25:25.154Z,99849.44
2023-05-21T13:28:15.385Z,99855.31
2023-05-21T13:31:03.080Z,99843.44
2023-05-21T13:33:50.871Z,99788.44
2023-05-21T13:36:41.088Z,99848.66
2023-05-21T13:39:33.827Z,99855.06
2023-05-21T13:42:21.717Z,99832.97
2023-05-21T13:45:11.997Z,99844.53
2023-05-21T13:48:02.458Z,99848.34
2023-05-21T13:50:50.542Z,99829.56
2023-05-21T13:53:38.354Z,99835.38
2023-05-21T13:56:26.614Z,99821.94
2023-05-21T13:59:14.486Z,99840.56
2023-05-21T14:02:02.472Z,99847.78
2023-05-21T14:04:50.211Z,99821.56
2023-05-21T14:07:38.280Z,99831.69
2023-05-21T14:10:26.112Z,99835.56
2023-05-21T14:13:19.548Z,99842.47
2023-05-21T14:16:08.267Z,99823.88
2023-05-21T14:18:56.861Z,99770.97
2023-05-21T14:21:45.035Z,99825.81
2023-05-21T14:24:32.949Z,99791.06
2023-05-21T14:27:20.697Z,99836.88
2023-05-21T14:30:11.579Z,99833.69
2023-05-21T14:32:59.446Z,99838.88
2023-05-21T14:35:48.449Z,99842.81
2023-05-21T14:38:36.146Z,99843.75
2023-05-21T14:41:27.962Z,99825.22
2023-05-21T14:44:15.792Z,99842.22
2023-05-21T14:47:03.611Z,99828.84
2023-05-21T14:49:51.699Z,99820.00
2023-05-21T14:52:42.798Z,99816.09
2023-05-21T14:55:31.139Z,99782.31
2023-05-21T14:58:19.167Z,99811.19
2023-05-21T15:01:06.917Z,99837.78
2023-05-21T15:03:57.238Z,99828.19
2023-05-21T15:06:45.207Z,99804.09
2023-05-21T15:09:33.017Z,99835.53
2023-05-21T15:12:20.984Z,99824.38
2023-05-21T15:15:09.336Z,99831.09
2023-05-21T15:17:58.009Z,99838.94
2023-05-21T15:20:45.958Z,99827.88
2023-05-21T15:23:34.732Z,99857.75
2023-05-21T15:26:23.065Z,99858.41
2023-05-21T15:29:10.863Z,99848.28
2023-05-21T15:31:58.701Z,99839.31
2023-05-21T15:34:47.045Z,99860.19
2023-05-21T15:37:34.891Z,99864.69
2023-05-21T15:40:23.922Z,99889.50
2023-05-21T15:43:13.395Z,99892.63
2023-05-21T15:46:01.179Z,99898.69
2023-05-21T15:48:49.006Z,99896.22
2023-05-21T15:51:36.814Z,99882.72
2023-05-21T15:54:25.074Z,99878.78
2023-05-21T15:57:12.839Z,99880.88
2023-05-21T16:00:00.564Z,99869.47
2023-05-21T16:02:48.954Z,99869.47
2023-05-21T16:05:36.936Z,99875.84
2023-05-21T16:08:24.971Z,99885.69
2023-05-21T16:11:13.101Z,99888.09
2023-05-21T16:14:00.838Z,99883.34
2023-05-21T16:16:48.745Z,99838.00
2023-05-21T16:19:36.614Z,99880.09
2023-05-21T16:22:24.977Z,99870.53
2023-05-21T16:25:12.712Z,99885.44
2023-05-21T16:28:00.476Z,99884.81
2023-05-21T16:30:48.127Z,99848.16
2023-05-21T16:33:35.990Z,99887.81
2023-05-21T16:36:23.679Z,99881.22
2023-05-21T16:39:11.846Z,99897.00
2023-05-21T16:41:59.984Z,99912.13
2023-05-21T16:44:47.635Z,99915.31
2023-05-21T16:47:35.541Z,99908.41
2023-05-21T16:50:23.375Z,99903.66
2023-05-21T16:53:11.711Z,99907.84
2023-05-21T16:55:59.426Z,99911.09
2023-05-21T16:58:47.100Z,99911.63
2023-05-21T17:01:35.122Z,99910.56
2023-05-21T17:04:22.782Z,99932.50
2023-05-21T17:07:10.684Z,99919.34
2023-05-21T17:09:58.449Z,99911.50
2023-05-21T17:12:46.419Z,99940.84
2023-05-21T17:15:34.276Z,99923.50
2023-05-21T17:18:22.132Z,99946.16
2023-05-21T17:21:10.686Z,99943.34
2023-05-21T17:23:58.442Z,99937.06
2023-05-21T17:26:46.217Z,99933.53
2023-05-21T17:29:34.170Z,99952.56
2023-05-21T17:32:22.031Z,99949.88
2023-05-21T17:35:10.650Z,99973.88
2023-05-21T17:37:58.359Z,99960.09
2023-05-21T17:40:46.145Z,99953.88
2023-05-21T17:43:33.920Z,99952.56
2023-05-21T17:46:21.807Z,99932.06
2023-05-21T17:49:09.733Z,99952.88
2023-05-21T17:51:57.550Z,99964.13
2023-05-21T17:54:45.295Z,99964.13
2023-05-21T17:57:33.126Z,99949.59
2023-05-21T18:00:21.347Z,99967.53
2023-05-21T18:03:09.330Z,99893.84
2023-05-21T18:05:56.993Z,99975.31
2023-05-21T18:08:44.787Z,99976.50
2023-05-21T18:11:32.618Z,99966.63
2023-05-21T18:14:20.529Z,99981.00
2023-05-21T18:17:08.349Z,99976.78
2023-05-21T18:19:56.596Z,99970.88
2023-05-21T18:22:45.213Z,99978.09
2023-05-21T18:25:32.898Z,99979.69
2023-05-21T18:28:20.759Z,99983.34
2023-05-21T18:31:08.596Z,99932.94
2023-05-21T18:33:56.512Z,99983.81
2023-05-21T18:36:44.353Z,99976.25
2023-05-21T18:39:31.934Z,100011.34
2023-05-21T18:42:19.755Z,100003.34
2023-05-21T18:45:08.893Z,99990.63
2023-05-21T18:47:56.735Z,100007.28
2023-05-21T18:50:44.510Z,99997.69
2023-05-21T18:53:32.256Z,99981.91
2023-05-21T18:56:20.019Z,100017.63
2023-05-21T18:59:08.052Z,99995.81
2023-05-21T19:01:58.931Z,100037.22
2023-05-21T19:04:46.946Z,100032.38
2023-05-21T19:07:35.009Z,99960.56
2023-05-21T19:10:22.821Z,100046.09
2023-05-21T19:13:10.914Z,100039.72
2023-05-21T19:15:58.924Z,100046.91
2023-05-21T19:18:46.729Z,100047.59
2023-05-21T19:21:34.497Z,100011.47
2023-05-21T19:24:22.139Z,100060.03
2023-05-21T19:27:10.012Z,100049.34
2023-05-21T19:29:57.919Z,100037.47
2023-05-21T19:32:46.556Z,100050.53
2023-05-21T19:35:34.221Z,100058.56
2023-05-21T19:38:22.040Z,100054.56
2023-05-21T19:41:09.769Z,100033.91
2023-05-21T19:43:57.586Z,100032.69
2023-05-21T19:46:45.282Z,100060.56
2023-05-21T19:49:33.099Z,100054.59
2023-05-21T19:52:20.925Z,100070.09
2023-05-21T19:55:10.439Z,100046.69
2023-05-21T19:58:00.464Z,100058.22
2023-05-21T20:00:50.828Z,100037.94
2023-05-21T20:03:38.980Z,100065.38
2023-05-21T20:06:26.901Z,100074.97
2023-05-21T20:09:16.455Z,100054.25
2023-05-21T20:12:04.353Z,100047.06
2023-05-21T20:14:53.862Z,100075.72
2023-05-21T20:17:44.325Z,100030.72
2023-05-21T20:20:34.389Z,100078.16
2023-05-21T20:23:27.159Z,100079.75
2023-05-21T20:26:19.240Z,100089.75
2023-05-21T20:29:08.298Z,100091.34
2023-05-21T20:31:56.033Z,100092.13
2023-05-21T20:34:58.314Z,100069.84
2023-05-21T20:37:49.584Z,100106.53
2023-05-21T20:40:37.445Z,100087.41
2023-05-21T20:43:25.716Z,100095.38
2023-05-21T20:46:13.817Z,100091.75
2023-05-21T20:49:01.656Z,100108.91
2023-05-21T20:51:49.593Z,100085.00
2023-05-21T20:54:37.351Z,100105.34
2023-05-21T20:57:26.389Z,100079.47
2023-05-21T21:00:16.221Z,100106.53
2023-05-21T21:03:04.405Z,100118.09
2023-05-21T21:05:53.101Z,100115.72
2023-05-21T21:08:41.139Z,100121.28
2023-05-21T21:11:28.890Z,100131.66
2023-05-21T21:14:16.658Z,100097.00
2023-05-21T21:17:04.496Z,100128.84
2023-05-21T21:19:52.415Z,100128.03
2023-05-21T21:22:40.209Z,100128.84
2023-05-21T21:25:27.988Z,100134.03
2023-05-21T21:28:15.663Z,100126.44
2023-05-21T21:31:03.390Z,100142.41
2023-05-21T21:33:53.359Z,100140.03
2023-05-21T21:36:41.219Z,100125.25
2023-05-21T21:39:28.922Z,100144.78
2023-05-21T21:42:16.628Z,100147.19
2023-05-21T21:45:05.368Z,100142.00
2023-05-21T21:47:53.117Z,100125.66
2023-05-21T21:50:41.229Z,100134.44
2023-05-21T21:53:35.171Z,100144.78
2023-05-21T21:56:22.965Z,100144.78
2023-05-21T21:59:13.285Z,100117.25
2023-05-21T22:02:01.325Z,100118.44
2023-05-21T22:04:48.991Z,100127.22
2023-05-21T22:07:38.932Z,100128.81
2023-05-21T22:10:26.677Z,100115.25
2023-05-21T22:13:14.587Z,100128.78
2023-05-21T22:16:02.423Z,100139.94
2023-05-21T22:18:57.298Z,100153.06
2023-05-21T22:21:46.601Z,100148.69
2023-05-21T22:24:34.308Z,100167.44
2023-05-21T22:27:24.528Z,100159.88
2023-05-21T22:30:12.863Z,100152.25
2023-05-21T22:33:00.849Z,100163.81
2023-05-21T22:35:48.637Z,100147.78
2023-05-21T22:38:36.469Z,100115.06
2023-05-21T22:41:24.214Z,100168.56
2023-05-21T22:44:12.875Z,100165.00
2023-05-21T22:47:01.142Z,100151.00
2023-05-21T22:49:49.002Z,100169.38
2023-05-21T22:52:38.400Z,100159.03
2023-05-21T22:55:26.313Z,100164.59
2023-05-21T22:58:14.014Z,100172.50
2023-05-21T23:01:04.809Z,100168.50
2023-05-21T23:03:52.588Z,100178.44
2023-05-21T23:06:40.382Z,100175.59
2023-05-21T23:09:28.181Z,100178.84
2023-05-21T23:12:16.545Z,100172.03
2023-05-21T23:15:05.686Z,100166.88
2023-05-21T23:17:53.590Z,100168.88
2023-05-21T23:21:08.544Z,100155.22
2023-05-21T23:23:56.376Z,100163.97
2023-05-21T23:26:44.199Z,100169.97
2023-05-21T23:29:31.887Z,100133.31
2023-05-21T23:32:19.804Z,100162.81
2023-05-21T23:35:08.432Z,100156.41
2023-05-21T23:37:56.191Z,100158.78
2023-05-21T23:40:44.046Z,100143.25
2023-05-21T23:43:31.808Z,100171.16
2023-05-21T23:46:19.591Z,100143.69
2023-05-21T23:49:07.303Z,100145.69
2023-05-21T23:51:55.541Z,100098.97
2023-05-21T23:54:43.341Z,100130.88
2023-05-21T23:57:31.194Z,100153.22
